sensor_id;sensor_type;location;lat;lon;timestamp;pressure;altitude;pressure_sealevel;temperature;humidity
78741;BME280;68062;48.726;9.370;2023-02-28T00:01:39;99417.69;;;0.51;56.59
78741;BME280;68062;48.726;9.370;2023-02-28T00:04:06;99414.94;;;0.47;57.49
78741;BME280;68062;48.726;9.370;2023-02-28T00:06:34;99424.75;;;-0.11;58.25
78741;BME280;68062;48.726;9.370;2023-02-28T00:09:02;99423.25;;;-0.24;58.82
78741;BME280;68062;48.726;9.370;2023-02-28T00:11:28;99418.56;;;0.17;57.82
78741;BME280;68062;48.726;9.370;2023-02-28T00:13:55;99417.34;;;0.27;57.85
78741;BME280;68062;48.726;9.370;2023-02-28T00:16:22;99423.78;;;0.20;58.03
78741;BME280;68062;48.726;9.370;2023-02-28T00:18:49;99415.41;;;0.21;58.02
78741;BME280;68062;48.726;9.370;2023-02-28T00:21:16;99404.09;;;0.14;57.25
78741;BME280;68062;48.726;9.370;2023-02-28T00:23:42;99420.38;;;0.03;57.65
78741;BME280;68062;48.726;9.370;2023-02-28T00:26:10;99399.56;;;-0.26;58.60
78741;BME280;68062;48.726;9.370;2023-02-28T00:28:37;99412.09;;;0.06;58.17
78741;BME280;68062;48.726;9.370;2023-02-28T00:31:03;99400.22;;;0.21;57.36
78741;BME280;68062;48.726;9.370;2023-02-28T00:33:30;99418.91;;;-0.26;58.25
78741;BME280;68062;48.726;9.370;2023-02-28T00:36:04;99416.78;;;-0.19;59.24
78741;BME280;68062;48.726;9.370;2023-02-28T00:38:31;99426.84;;;-0.52;59.54
78741;BME280;68062;48.726;9.370;2023-02-28T00:40:57;99421.53;;;-0.25;59.42
78741;BME280;68062;48.726;9.370;2023-02-28T00:43:31;99424.44;;;-0.01;58.87
78741;BME280;68062;48.726;9.370;2023-02-28T00:45:58;99426.97;;;-0.01;59.13
78741;BME280;68062;48.726;9.370;2023-02-28T00:48:24;99423.22;;;0.09;58.39
78741;BME280;68062;48.726;9.370;2023-02-28T00:50:50;99419.84;;;-0.08;58.87
78741;BME280;68062;48.726;9.370;2023-02-28T00:53:17;99415.78;;;0.12;58.35
78741;BME280;68062;48.726;9.370;2023-02-28T00:55:44;99411.91;;;0.19;58.39
78741;BME280;68062;48.726;9.370;2023-02-28T00:58:10;99414.44;;;0.19;58.43
78741;BME280;68062;48.726;9.370;2023-02-28T01:00:38;99413.03;;;0.24;58.32
78741;BME280;68062;48.726;9.370;2023-02-28T01:03:04;99417.94;;;0.39;58.43
78741;BME280;68062;48.726;9.370;2023-02-28T01:05:31;99416.50;;;0.26;57.88
78741;BME280;68062;48.726;9.370;2023-02-28T01:07:58;99406.41;;;-0.23;59.75
78741;BME280;68062;48.726;9.370;2023-02-28T01:10:25;99412.09;;;-1.07;61.64
78741;BME280;68062;48.726;9.370;2023-02-28T01:12:51;99410.72;;;-0.70;61.99
78741;BME280;68062;48.726;9.370;2023-02-28T01:15:18;99416.91;;;-0.80;62.00
78741;BME280;68062;48.726;9.370;2023-02-28T01:17:46;99416.25;;;-0.61;61.76
78741;BME280;68062;48.726;9.370;2023-02-28T01:20:12;99412.97;;;-0.43;61.29
78741;BME280;68062;48.726;9.370;2023-02-28T01:22:39;99409.69;;;-0.57;61.96
78741;BME280;68062;48.726;9.370;2023-02-28T01:25:06;99409.19;;;-0.19;60.79
78741;BME280;68062;48.726;9.370;2023-02-28T01:27:33;99407.34;;;-0.05;60.25
78741;BME280;68062;48.726;9.370;2023-02-28T01:30:00;99397.78;;;0.06;59.66
78741;BME280;68062;48.726;9.370;2023-02-28T01:32:27;99403.34;;;-0.34;60.43
78741;BME280;68062;48.726;9.370;2023-02-28T01:34:56;99387.22;;;-0.36;61.35
78741;BME280;68062;48.726;9.370;2023-02-28T01:37:22;99401.88;;;0.04;60.53
78741;BME280;68062;48.726;9.370;2023-02-28T01:39:49;99402.66;;;0.03;60.38
78741;BME280;68062;48.726;9.370;2023-02-28T01:42:20;99402.91;;;0.08;60.39
78741;BME280;68062;48.726;9.370;2023-02-28T01:45:21;99368.72;;;-0.02;60.42
78741;BME280;68062;48.726;9.370;2023-02-28T01:47:50;99401.44;;;-0.38;61.30
78741;BME280;68062;48.726;9.370;2023-02-28T01:50:21;99402.72;;;-0.30;61.92
78741;BME280;68062;48.726;9.370;2023-02-28T01:52:48;99397.88;;;-0.42;61.97
78741;BME280;68062;48.726;9.370;2023-02-28T01:55:16;99395.75;;;-0.34;62.07
78741;BME280;68062;48.726;9.370;2023-02-28T01:57:46;99392.97;;;-0.06;61.85
78741;BME280;68062;48.726;9.370;2023-02-28T02:00:17;99390.28;;;-0.42;62.44
78741;BME280;68062;48.726;9.370;2023-02-28T02:02:47;99390.19;;;-0.77;63.40
78741;BME280;68062;48.726;9.370;2023-02-28T02:05:18;99389.00;;;-1.45;65.20
78741;BME280;68062;48.726;9.370;2023-02-28T02:07:48;99389.13;;;-1.12;65.31
78741;BME280;68062;48.726;9.370;2023-02-28T02:10:19;99387.34;;;-0.66;64.27
78741;BME280;68062;48.726;9.370;2023-02-28T02:13:05;99378.13;;;-0.49;63.33
78741;BME280;68062;48.726;9.370;2023-02-28T02:15:36;99385.28;;;-0.73;63.93
78741;BME280;68062;48.726;9.370;2023-02-28T02:18:11;99376.63;;;-0.62;63.65
78741;BME280;68062;48.726;9.370;2023-02-28T02:24:05;99377.50;;;-0.28;62.82
78741;BME280;68062;48.726;9.370;2023-02-28T02:26:51;99371.28;;;-0.19;62.46
78741;BME280;68062;48.726;9.370;2023-02-28T02:32:47;99370.78;;;-0.45;63.74
78741;BME280;68062;48.726;9.370;2023-02-28T02:35:25;99355.38;;;-0.49;63.41
78741;BME280;68062;48.726;9.370;2023-02-28T02:38:00;99365.66;;;-0.30;63.28
78741;BME280;68062;48.726;9.370;2023-02-28T02:40:34;99368.13;;;-0.31;63.30
78741;BME280;68062;48.726;9.370;2023-02-28T02:43:06;99370.28;;;-0.87;64.44
78741;BME280;68062;48.726;9.370;2023-02-28T02:45:38;99370.47;;;-0.99;65.48
78741;BME280;68062;48.726;9.370;2023-02-28T02:48:09;99359.38;;;-1.17;66.24
78741;BME280;68062;48.726;9.370;2023-02-28T02:50:41;99370.75;;;-1.09;66.57
78741;BME280;68062;48.726;9.370;2023-02-28T02:53:11;99362.19;;;-0.48;64.86
78741;BME280;68062;48.726;9.370;2023-02-28T02:55:41;99360.22;;;-0.85;66.27
78741;BME280;68062;48.726;9.370;2023-02-28T02:58:13;99359.19;;;-1.06;66.87
78741;BME280;68062;48.726;9.370;2023-02-28T03:00:43;99342.66;;;-0.84;66.56
78741;BME280;68062;48.726;9.370;2023-02-28T03:03:12;99356.88;;;-1.33;67.76
78741;BME280;68062;48.726;9.370;2023-02-28T03:05:46;99369.44;;;-1.02;66.44
78741;BME280;68062;48.726;9.370;2023-02-28T03:08:13;99361.19;;;-0.83;66.54
78741;BME280;68062;48.726;9.370;2023-02-28T03:10:41;99360.16;;;-1.19;67.73
78741;BME280;68062;48.726;9.370;2023-02-28T03:16:33;99369.13;;;-0.44;65.35
78741;BME280;68062;48.726;9.370;2023-02-28T03:19:23;99371.50;;;-0.14;64.61
78741;BME280;68062;48.726;9.370;2023-02-28T03:22:04;99371.97;;;-0.21;64.99
78741;BME280;68062;48.726;9.370;2023-02-28T03:24:40;99367.63;;;-0.57;64.95
78741;BME280;68062;48.726;9.370;2023-02-28T03:27:15;99372.34;;;-0.80;65.85
78741;BME280;68062;48.726;9.370;2023-02-28T03:29:46;99360.72;;;-0.76;65.97
78741;BME280;68062;48.726;9.370;2023-02-28T03:32:17;99374.97;;;-0.45;65.54
78741;BME280;68062;48.726;9.370;2023-02-28T03:34:49;99373.31;;;-0.28;65.76
78741;BME280;68062;48.726;9.370;2023-02-28T03:37:20;99375.22;;;-0.57;65.71
78741;BME280;68062;48.726;9.370;2023-02-28T03:39:51;99374.03;;;-0.31;65.78
78741;BME280;68062;48.726;9.370;2023-02-28T03:42:22;99363.53;;;-0.22;65.27
78741;BME280;68062;48.726;9.370;2023-02-28T03:44:52;99371.00;;;-0.07;64.29
78741;BME280;68062;48.726;9.370;2023-02-28T03:47:23;99364.84;;;-0.12;64.92
78741;BME280;68062;48.726;9.370;2023-02-28T03:49:53;99366.22;;;-0.35;65.25
78741;BME280;68062;48.726;9.370;2023-02-28T03:52:27;99359.69;;;0.03;65.05
78741;BME280;68062;48.726;9.370;2023-02-28T03:54:59;99370.16;;;-0.07;64.80
78741;BME280;68062;48.726;9.370;2023-02-28T03:57:33;99361.19;;;-0.01;64.92
78741;BME280;68062;48.726;9.370;2023-02-28T04:00:05;99352.81;;;0.01;64.51
78741;BME280;68062;48.726;9.370;2023-02-28T04:02:33;99363.91;;;0.21;64.21
78741;BME280;68062;48.726;9.370;2023-02-28T04:05:00;99358.94;;;0.22;64.48
78741;BME280;68062;48.726;9.370;2023-02-28T04:07:30;99367.03;;;0.33;64.59
78741;BME280;68062;48.726;9.370;2023-02-28T04:09:57;99367.78;;;0.31;64.42
78741;BME280;68062;48.726;9.370;2023-02-28T04:12:24;99360.75;;;0.25;64.42
78741;BME280;68062;48.726;9.370;2023-02-28T04:14:50;99369.41;;;0.30;66.50
78741;BME280;68062;48.726;9.370;2023-02-28T04:17:17;99368.03;;;0.53;65.84
78741;BME280;68062;48.726;9.370;2023-02-28T04:19:43;99369.47;;;0.48;65.86
78741;BME280;68062;48.726;9.370;2023-02-28T04:22:10;99370.91;;;0.08;65.00
78741;BME280;68062;48.726;9.370;2023-02-28T04:24:38;99370.84;;;0.07;65.58
78741;BME280;68062;48.726;9.370;2023-02-28T04:27:06;99370.47;;;-0.18;67.04
78741;BME280;68062;48.726;9.370;2023-02-28T04:29:34;99368.97;;;-0.14;66.17
78741;BME280;68062;48.726;9.370;2023-02-28T04:32:01;99371.91;;;-0.06;65.46
78741;BME280;68062;48.726;9.370;2023-02-28T04:34:30;99370.91;;;0.08;66.08
78741;BME280;68062;48.726;9.370;2023-02-28T04:36:57;99366.06;;;-0.55;67.15
78741;BME280;68062;48.726;9.370;2023-02-28T04:39:24;99375.59;;;-0.33;67.32
78741;BME280;68062;48.726;9.370;2023-02-28T04:41:52;99367.00;;;-0.36;67.25
78741;BME280;68062;48.726;9.370;2023-02-28T04:44:19;99359.91;;;-0.27;67.50
78741;BME280;68062;48.726;9.370;2023-02-28T04:46:48;99365.91;;;-0.25;66.66
78741;BME280;68062;48.726;9.370;2023-02-28T04:49:15;99369.91;;;-0.28;67.07
78741;BME280;68062;48.726;9.370;2023-02-28T04:51:42;99371.66;;;-0.44;67.78
78741;BME280;68062;48.726;9.370;2023-02-28T04:54:08;99376.94;;;-0.72;68.39
78741;BME280;68062;48.726;9.370;2023-02-28T04:56:35;99373.00;;;-0.34;67.73
78741;BME280;68062;48.726;9.370;2023-02-28T04:59:04;99365.94;;;-0.07;66.20
78741;BME280;68062;48.726;9.370;2023-02-28T05:01:33;99359.03;;;0.07;66.21
78741;BME280;68062;48.726;9.370;2023-02-28T05:04:02;99367.19;;;0.18;65.74
78741;BME280;68062;48.726;9.370;2023-02-28T05:06:31;99375.47;;;0.16;65.50
78741;BME280;68062;48.726;9.370;2023-02-28T05:08:58;99378.47;;;0.08;65.55
78741;BME280;68062;48.726;9.370;2023-02-28T05:11:27;99377.75;;;-0.57;67.49
78741;BME280;68062;48.726;9.370;2023-02-28T05:13:58;99375.19;;;-1.05;69.51
78741;BME280;68062;48.726;9.370;2023-02-28T05:16:26;99376.84;;;-0.57;68.20
78741;BME280;68062;48.726;9.370;2023-02-28T05:18:53;99363.09;;;-0.63;67.99
78741;BME280;68062;48.726;9.370;2023-02-28T05:21:25;99369.75;;;-0.15;67.28
78741;BME280;68062;48.726;9.370;2023-02-28T05:23:51;99370.38;;;-0.19;67.29
78741;BME280;68062;48.726;9.370;2023-02-28T05:26:18;99375.44;;;-0.52;67.49
78741;BME280;68062;48.726;9.370;2023-02-28T05:28:47;99380.66;;;-0.49;67.73
78741;BME280;68062;48.726;9.370;2023-02-28T05:31:14;99389.63;;;-0.71;68.92
78741;BME280;68062;48.726;9.370;2023-02-28T05:33:42;99387.03;;;-0.72;68.94
78741;BME280;68062;48.726;9.370;2023-02-28T05:36:08;99387.69;;;-0.92;69.28
78741;BME280;68062;48.726;9.370;2023-02-28T05:38:35;99385.97;;;-0.76;69.25
78741;BME280;68062;48.726;9.370;2023-02-28T05:41:05;99380.97;;;-0.60;68.37
78741;BME280;68062;48.726;9.370;2023-02-28T05:43:31;99382.66;;;-0.27;67.42
78741;BME280;68062;48.726;9.370;2023-02-28T05:45:58;99385.56;;;-0.19;66.88
78741;BME280;68062;48.726;9.370;2023-02-28T05:48:24;99380.81;;;-0.13;66.97
78741;BME280;68062;48.726;9.370;2023-02-28T05:50:53;99376.50;;;0.19;66.18
78741;BME280;68062;48.726;9.370;2023-02-28T05:53:19;99390.59;;;-0.36;66.52
78741;BME280;68062;48.726;9.370;2023-02-28T05:55:46;99388.66;;;-0.25;66.66
78741;BME280;68062;48.726;9.370;2023-02-28T05:58:12;99386.75;;;-0.12;66.89
78741;BME280;68062;48.726;9.370;2023-02-28T06:00:39;99395.19;;;0.05;66.52
78741;BME280;68062;48.726;9.370;2023-02-28T06:03:05;99390.59;;;-0.03;66.07
78741;BME280;68062;48.726;9.370;2023-02-28T06:05:32;99395.28;;;-0.10;66.37
78741;BME280;68062;48.726;9.370;2023-02-28T06:07:59;99396.91;;;0.22;65.55
78741;BME280;68062;48.726;9.370;2023-02-28T06:10:26;99404.97;;;0.15;66.00
78741;BME280;68062;48.726;9.370;2023-02-28T06:12:52;99401.66;;;-0.01;65.65
78741;BME280;68062;48.726;9.370;2023-02-28T06:15:19;99404.19;;;-0.01;65.29
78741;BME280;68062;48.726;9.370;2023-02-28T06:17:46;99380.44;;;-0.37;66.77
78741;BME280;68062;48.726;9.370;2023-02-28T06:20:13;99403.19;;;-0.37;66.86
78741;BME280;68062;48.726;9.370;2023-02-28T06:22:39;99400.25;;;-0.28;66.74
78741;BME280;68062;48.726;9.370;2023-02-28T06:25:09;99400.19;;;-0.30;67.31
78741;BME280;68062;48.726;9.370;2023-02-28T06:27:36;99406.25;;;-0.10;66.39
78741;BME280;68062;48.726;9.370;2023-02-28T06:30:03;99425.31;;;0.00;66.50
78741;BME280;68062;48.726;9.370;2023-02-28T06:32:39;99416.09;;;0.19;65.75
78741;BME280;68062;48.726;9.370;2023-02-28T06:35:07;99425.16;;;-0.03;66.38
78741;BME280;68062;48.726;9.370;2023-02-28T06:37:34;99411.13;;;0.20;65.50
78741;BME280;68062;48.726;9.370;2023-02-28T06:40:00;99403.19;;;0.31;65.04
78741;BME280;68062;48.726;9.370;2023-02-28T06:42:29;99428.63;;;-0.01;65.79
78741;BME280;68062;48.726;9.370;2023-02-28T06:44:56;99436.34;;;0.19;65.59
78741;BME280;68062;48.726;9.370;2023-02-28T06:47:22;99435.56;;;0.03;65.48
78741;BME280;68062;48.726;9.370;2023-02-28T06:49:49;99428.22;;;0.08;66.24
78741;BME280;68062;48.726;9.370;2023-02-28T06:52:16;99432.16;;;0.03;66.00
78741;BME280;68062;48.726;9.370;2023-02-28T06:54:42;99429.22;;;0.11;65.54
78741;BME280;68062;48.726;9.370;2023-02-28T06:57:09;99433.97;;;0.05;65.24
78741;BME280;68062;48.726;9.370;2023-02-28T06:59:36;99429.69;;;0.21;65.39
78741;BME280;68062;48.726;9.370;2023-02-28T07:02:03;99436.03;;;0.12;65.42
78741;BME280;68062;48.726;9.370;2023-02-28T07:04:31;99435.16;;;0.28;64.83
78741;BME280;68062;48.726;9.370;2023-02-28T07:06:58;99441.94;;;0.29;65.25
78741;BME280;68062;48.726;9.370;2023-02-28T07:09:24;99436.34;;;0.19;65.23
78741;BME280;68062;48.726;9.370;2023-02-28T07:11:54;99443.22;;;-0.12;66.29
78741;BME280;68062;48.726;9.370;2023-02-28T07:14:21;99425.31;;;-0.17;66.36
78741;BME280;68062;48.726;9.370;2023-02-28T07:16:49;99445.50;;;0.33;65.44
78741;BME280;68062;48.726;9.370;2023-02-28T07:19:15;99446.53;;;0.20;64.93
78741;BME280;68062;48.726;9.370;2023-02-28T07:21:41;99443.91;;;0.35;65.18
78741;BME280;68062;48.726;9.370;2023-02-28T07:24:08;99436.09;;;0.31;65.03
78741;BME280;68062;48.726;9.370;2023-02-28T07:26:35;99452.19;;;0.49;64.27
78741;BME280;68062;48.726;9.370;2023-02-28T07:29:02;99451.41;;;0.50;65.21
78741;BME280;68062;48.726;9.370;2023-02-28T07:31:28;99460.34;;;0.43;65.16
78741;BME280;68062;48.726;9.370;2023-02-28T07:33:56;99449.72;;;0.16;64.62
78741;BME280;68062;48.726;9.370;2023-02-28T07:36:22;99447.47;;;0.39;64.74
78741;BME280;68062;48.726;9.370;2023-02-28T07:38:49;99447.94;;;0.66;63.96
78741;BME280;68062;48.726;9.370;2023-02-28T07:41:16;99438.97;;;0.55;63.94
78741;BME280;68062;48.726;9.370;2023-02-28T07:43:43;99450.31;;;0.63;64.07
78741;BME280;68062;48.726;9.370;2023-02-28T07:46:12;99412.50;;;0.48;63.44
78741;BME280;68062;48.726;9.370;2023-02-28T07:48:40;99441.53;;;0.73;63.16
78741;BME280;68062;48.726;9.370;2023-02-28T07:51:08;99443.28;;;0.74;62.78
78741;BME280;68062;48.726;9.370;2023-02-28T07:53:34;99450.72;;;0.71;64.15
78741;BME280;68062;48.726;9.370;2023-02-28T07:56:02;99452.03;;;0.81;62.91
78741;BME280;68062;48.726;9.370;2023-02-28T07:58:30;99426.53;;;0.25;64.28
78741;BME280;68062;48.726;9.370;2023-02-28T08:00:56;99466.91;;;0.40;64.30
78741;BME280;68062;48.726;9.370;2023-02-28T08:03:24;99453.03;;;-0.02;65.41
78741;BME280;68062;48.726;9.370;2023-02-28T08:05:50;99462.31;;;0.49;64.45
78741;BME280;68062;48.726;9.370;2023-02-28T08:08:19;99454.78;;;0.85;63.22
78741;BME280;68062;48.726;9.370;2023-02-28T08:10:46;99464.13;;;0.86;63.31
78741;BME280;68062;48.726;9.370;2023-02-28T08:13:12;99445.22;;;0.80;62.42
78741;BME280;68062;48.726;9.370;2023-02-28T08:15:40;99472.97;;;1.13;62.60
78741;BME280;68062;48.726;9.370;2023-02-28T08:18:06;99478.97;;;0.62;63.88
78741;BME280;68062;48.726;9.370;2023-02-28T08:20:33;99471.13;;;0.92;63.42
78741;BME280;68062;48.726;9.370;2023-02-28T08:22:59;99475.28;;;1.08;62.94
78741;BME280;68062;48.726;9.370;2023-02-28T08:25:27;99468.03;;;0.98;62.76
78741;BME280;68062;48.726;9.370;2023-02-28T08:27:53;99476.44;;;1.15;62.42
78741;BME280;68062;48.726;9.370;2023-02-28T08:30:21;99471.88;;;1.08;62.00
78741;BME280;68062;48.726;9.370;2023-02-28T08:32:48;99468.28;;;1.21;62.00
78741;BME280;68062;48.726;9.370;2023-02-28T08:35:14;99455.94;;;1.28;62.20
78741;BME280;68062;48.726;9.370;2023-02-28T08:37:41;99476.44;;;1.15;62.50
78741;BME280;68062;48.726;9.370;2023-02-28T08:40:08;99467.16;;;0.79;63.22
78741;BME280;68062;48.726;9.370;2023-02-28T08:42:36;99470.69;;;0.65;64.29
78741;BME280;68062;48.726;9.370;2023-02-28T08:45:04;99478.53;;;0.36;64.50
78741;BME280;68062;48.726;9.370;2023-02-28T08:47:30;99479.34;;;0.19;65.73
78741;BME280;68062;48.726;9.370;2023-02-28T08:49:56;99481.13;;;0.54;64.49
78741;BME280;68062;48.726;9.370;2023-02-28T08:52:23;99481.47;;;0.44;64.44
78741;BME280;68062;48.726;9.370;2023-02-28T08:54:49;99478.72;;;0.74;64.02
78741;BME280;68062;48.726;9.370;2023-02-28T08:57:16;99477.88;;;0.92;63.64
78741;BME280;68062;48.726;9.370;2023-02-28T08:59:44;99477.38;;;1.17;62.66
78741;BME280;68062;48.726;9.370;2023-02-28T09:02:12;99472.22;;;0.79;64.22
78741;BME280;68062;48.726;9.370;2023-02-28T09:04:39;99461.88;;;1.11;63.03
78741;BME280;68062;48.726;9.370;2023-02-28T09:07:06;99487.50;;;1.35;62.40
78741;BME280;68062;48.726;9.370;2023-02-28T09:09:32;99471.91;;;1.64;61.35
78741;BME280;68062;48.726;9.370;2023-02-28T09:11:59;99483.28;;;1.54;60.89
78741;BME280;68062;48.726;9.370;2023-02-28T09:14:25;99486.88;;;1.77;60.07
78741;BME280;68062;48.726;9.370;2023-02-28T09:16:53;99486.56;;;1.15;61.57
78741;BME280;68062;48.726;9.370;2023-02-28T09:19:19;99482.41;;;1.53;61.50
78741;BME280;68062;48.726;9.370;2023-02-28T09:21:47;99490.41;;;1.43;61.97
78741;BME280;68062;48.726;9.370;2023-02-28T09:24:13;99485.53;;;1.66;61.08
78741;BME280;68062;48.726;9.370;2023-02-28T09:26:40;99485.28;;;1.79;60.69
78741;BME280;68062;48.726;9.370;2023-02-28T09:29:06;99484.28;;;1.20;61.30
78741;BME280;68062;48.726;9.370;2023-02-28T09:31:33;99486.09;;;1.60;61.32
78741;BME280;68062;48.726;9.370;2023-02-28T09:34:01;99492.59;;;1.73;60.61
78741;BME280;68062;48.726;9.370;2023-02-28T09:36:27;99499.34;;;1.92;59.96
78741;BME280;68062;48.726;9.370;2023-02-28T09:38:55;99493.53;;;1.75;59.98
78741;BME280;68062;48.726;9.370;2023-02-28T09:41:23;99492.13;;;1.82;58.95
78741;BME280;68062;48.726;9.370;2023-02-28T09:43:53;99491.56;;;2.27;58.32
78741;BME280;68062;48.726;9.370;2023-02-28T09:46:28;99491.03;;;2.14;58.99
78741;BME280;68062;48.726;9.370;2023-02-28T09:48:57;99497.72;;;2.32;59.05
78741;BME280;68062;48.726;9.370;2023-02-28T09:51:35;99475.81;;;2.34;57.61
78741;BME280;68062;48.726;9.370;2023-02-28T09:54:10;99491.84;;;2.74;57.13
78741;BME280;68062;48.726;9.370;2023-02-28T09:56:44;99495.03;;;2.48;57.03
78741;BME280;68062;48.726;9.370;2023-02-28T09:59:18;99493.59;;;2.14;57.54
78741;BME280;68062;48.726;9.370;2023-02-28T10:01:54;99494.44;;;1.95;57.37
78741;BME280;68062;48.726;9.370;2023-02-28T10:04:36;99500.78;;;1.85;58.14
78741;BME280;68062;48.726;9.370;2023-02-28T10:07:15;99472.94;;;2.06;57.13
78741;BME280;68062;48.726;9.370;2023-02-28T10:09:45;99491.72;;;2.10;57.52
78741;BME280;68062;48.726;9.370;2023-02-28T10:12:14;99508.78;;;1.95;58.03
78741;BME280;68062;48.726;9.370;2023-02-28T10:14:45;99505.50;;;1.97;57.35
78741;BME280;68062;48.726;9.370;2023-02-28T10:17:16;99508.06;;;2.17;57.32
78741;BME280;68062;48.726;9.370;2023-02-28T10:19:53;99503.59;;;2.11;56.82
78741;BME280;68062;48.726;9.370;2023-02-28T10:22:25;99501.50;;;2.22;57.45
78741;BME280;68062;48.726;9.370;2023-02-28T10:24:55;99514.88;;;2.18;57.77
78741;BME280;68062;48.726;9.370;2023-02-28T10:27:28;99520.75;;;2.37;56.83
78741;BME280;68062;48.726;9.370;2023-02-28T10:29:57;99505.25;;;2.30;57.02
78741;BME280;68062;48.726;9.370;2023-02-28T10:32:27;99519.94;;;2.78;56.26
78741;BME280;68062;48.726;9.370;2023-02-28T10:34:57;99513.91;;;2.75;55.57
78741;BME280;68062;48.726;9.370;2023-02-28T10:37:27;99512.00;;;2.90;55.56
78741;BME280;68062;48.726;9.370;2023-02-28T10:39:53;99514.72;;;3.16;54.89
78741;BME280;68062;48.726;9.370;2023-02-28T10:42:23;99507.78;;;3.12;54.58
78741;BME280;68062;48.726;9.370;2023-02-28T10:45:05;99513.34;;;3.03;55.27
78741;BME280;68062;48.726;9.370;2023-02-28T10:47:33;99500.91;;;3.53;54.81
78741;BME280;68062;48.726;9.370;2023-02-28T10:50:02;99485.69;;;3.55;54.89
78741;BME280;68062;48.726;9.370;2023-02-28T10:52:39;99495.75;;;3.75;53.57
78741;BME280;68062;48.726;9.370;2023-02-28T10:55:20;99482.03;;;3.94;53.07
78741;BME280;68062;48.726;9.370;2023-02-28T10:57:48;99491.69;;;3.80;53.25
78741;BME280;68062;48.726;9.370;2023-02-28T11:00:17;99499.91;;;3.95;53.32
78741;BME280;68062;48.726;9.370;2023-02-28T11:02:44;99493.72;;;3.89;52.74
78741;BME280;68062;48.726;9.370;2023-02-28T11:05:26;99494.94;;;3.76;53.08
78741;BME280;68062;48.726;9.370;2023-02-28T11:07:57;99501.59;;;3.95;53.68
78741;BME280;68062;48.726;9.370;2023-02-28T11:10:28;99502.31;;;3.92;53.70
78741;BME280;68062;48.726;9.370;2023-02-28T11:12:57;99501.66;;;3.74;53.16
78741;BME280;68062;48.726;9.370;2023-02-28T11:15:26;99496.09;;;4.08;52.86
78741;BME280;68062;48.726;9.370;2023-02-28T11:17:55;99484.75;;;3.98;53.27
78741;BME280;68062;48.726;9.370;2023-02-28T11:20:25;99490.31;;;3.88;52.93
78741;BME280;68062;48.726;9.370;2023-02-28T11:22:55;99482.84;;;4.17;52.89
78741;BME280;68062;48.726;9.370;2023-02-28T11:25:25;99483.59;;;4.39;52.77
78741;BME280;68062;48.726;9.370;2023-02-28T11:27:56;99483.38;;;4.33;52.89
78741;BME280;68062;48.726;9.370;2023-02-28T11:30:25;99477.97;;;4.23;52.26
78741;BME280;68062;48.726;9.370;2023-02-28T11:32:52;99484.63;;;4.20;52.76
78741;BME280;68062;48.726;9.370;2023-02-28T11:35:23;99471.56;;;4.10;52.97
78741;BME280;68062;48.726;9.370;2023-02-28T11:37:51;99475.91;;;4.13;52.68
78741;BME280;68062;48.726;9.370;2023-02-28T11:40:25;99478.28;;;4.08;52.81
78741;BME280;68062;48.726;9.370;2023-02-28T11:43:02;99459.53;;;4.06;53.00
78741;BME280;68062;48.726;9.370;2023-02-28T11:45:43;99471.91;;;3.95;54.05
78741;BME280;68062;48.726;9.370;2023-02-28T11:48:18;99454.50;;;4.32;53.24
78741;BME280;68062;48.726;9.370;2023-02-28T11:50:55;99465.50;;;4.31;52.08
78741;BME280;68062;48.726;9.370;2023-02-28T11:56:25;99443.28;;;4.51;52.42
78741;BME280;68062;48.726;9.370;2023-02-28T11:59:09;99456.56;;;4.68;52.18
78741;BME280;68062;48.726;9.370;2023-02-28T12:01:57;99463.34;;;4.68;51.17
78741;BME280;68062;48.726;9.370;2023-02-28T12:04:36;99460.94;;;3.98;52.87
78741;BME280;68062;48.726;9.370;2023-02-28T12:07:15;99475.09;;;4.14;53.16
78741;BME280;68062;48.726;9.370;2023-02-28T12:09:54;99471.47;;;4.07;52.84
78741;BME280;68062;48.726;9.370;2023-02-28T12:12:37;99467.00;;;4.26;52.93
78741;BME280;68062;48.726;9.370;2023-02-28T12:15:27;99460.47;;;4.33;52.23
78741;BME280;68062;48.726;9.370;2023-02-28T12:18:13;99460.25;;;4.26;52.27
78741;BME280;68062;48.726;9.370;2023-02-28T12:20:47;99452.56;;;4.51;52.69
78741;BME280;68062;48.726;9.370;2023-02-28T12:23:31;99459.31;;;4.75;51.78
78741;BME280;68062;48.726;9.370;2023-02-28T12:26:07;99435.31;;;4.68;51.45
78741;BME280;68062;48.726;9.370;2023-02-28T12:28:42;99438.56;;;4.38;51.82
78741;BME280;68062;48.726;9.370;2023-02-28T12:31:17;99438.06;;;4.48;52.85
78741;BME280;68062;48.726;9.370;2023-02-28T12:33:47;99439.84;;;4.51;53.07
78741;BME280;68062;48.726;9.370;2023-02-28T12:36:16;99422.50;;;4.66;51.10
78741;BME280;68062;48.726;9.370;2023-02-28T12:38:49;99435.63;;;4.77;52.82
78741;BME280;68062;48.726;9.370;2023-02-28T12:41:22;99430.50;;;5.05;50.99
78741;BME280;68062;48.726;9.370;2023-02-28T12:43:58;99428.22;;;4.59;51.51
78741;BME280;68062;48.726;9.370;2023-02-28T12:46:30;99433.69;;;4.70;51.63
78741;BME280;68062;48.726;9.370;2023-02-28T12:49:02;99415.09;;;4.47;53.27
78741;BME280;68062;48.726;9.370;2023-02-28T12:51:31;99424.22;;;4.66;53.34
78741;BME280;68062;48.726;9.370;2023-02-28T12:54:06;99427.78;;;4.45;52.61
78741;BME280;68062;48.726;9.370;2023-02-28T12:56:43;99428.91;;;4.81;52.10
78741;BME280;68062;48.726;9.370;2023-02-28T12:59:19;99421.41;;;5.13;52.10
78741;BME280;68062;48.726;9.370;2023-02-28T13:02:09;99409.31;;;5.06;51.89
78741;BME280;68062;48.726;9.370;2023-02-28T13:04:57;99419.78;;;5.15;51.75
78741;BME280;68062;48.726;9.370;2023-02-28T13:07:49;99416.09;;;4.78;52.52
78741;BME280;68062;48.726;9.370;2023-02-28T13:10:21;99416.97;;;4.78;52.13
78741;BME280;68062;48.726;9.370;2023-02-28T13:12:49;99396.28;;;4.96;52.01
78741;BME280;68062;48.726;9.370;2023-02-28T13:15:19;99397.56;;;5.40;51.90
78741;BME280;68062;48.726;9.370;2023-02-28T13:17:50;99391.00;;;5.48;50.66
78741;BME280;68062;48.726;9.370;2023-02-28T13:20:19;99393.28;;;5.69;49.36
78741;BME280;68062;48.726;9.370;2023-02-28T13:22:48;99392.38;;;5.98;50.21
78741;BME280;68062;48.726;9.370;2023-02-28T13:31:33;99389.03;;;6.00;49.18
78741;BME280;68062;48.726;9.370;2023-02-28T13:34:21;99388.53;;;6.12;49.18
78741;BME280;68062;48.726;9.370;2023-02-28T13:36:48;99383.53;;;6.51;48.58
78741;BME280;68062;48.726;9.370;2023-02-28T13:39:46;99389.88;;;6.68;48.02
78741;BME280;68062;48.726;9.370;2023-02-28T13:42:24;99398.56;;;6.75;48.13